sensor_id;sensor_type;location;lat;lon;timestamp;P1;durP1;ratioP1;P2;durP2;ratioP2
505;SDS011;551;48.524;9.056;2023-04-01T00:02:00;1.67;;;1.27;;
505;SDS011;551;48.524;9.056;2023-04-01T00:04:25;4.07;;;1.50;;
505;SDS011;551;48.524;9.056;2023-04-01T00:06:51;1.10;;;1.00;;
505;SDS011;551;48.524;9.056;2023-04-01T00:09:17;4.30;;;1.23;;
505;SDS011;551;48.524;9.056;2023-04-01T00:11:42;4.30;;;1.27;;
505;SDS011;551;48.524;9.056;2023-04-01T00:14:10;2.43;;;1.07;;
505;SDS011;551;48.524;9.056;2023-04-01T00:16:35;2.20;;;1.30;;
505;SDS011;551;48.524;9.056;2023-04-01T00:19:01;1.73;;;1.07;;
505;SDS011;551;48.524;9.056;2023-04-01T00:21:27;1.27;;;1.00;;
505;SDS011;551;48.524;9.056;2023-04-01T00:23:53;1.30;;;0.90;;
505;SDS011;551;48.524;9.056;2023-04-01T00:26:18;2.27;;;1.00;;
505;SDS011;551;48.524;9.056;2023-04-01T00:28:46;1.70;;;1.50;;
505;SDS011;551;48.524;9.056;2023-04-01T00:31:12;1.73;;;0.77;;
505;SDS011;551;48.524;9.056;2023-04-01T00:33:38;0.90;;;0.90;;
505;SDS011;551;48.524;9.056;2023-04-01T00:36:09;2.10;;;1.00;;
505;SDS011;551;48.524;9.056;2023-04-01T00:38:37;1.87;;;0.80;;
505;SDS011;551;48.524;9.056;2023-04-01T00:41:03;1.17;;;0.80;;
505;SDS011;551;48.524;9.056;2023-04-01T00:43:30;1.20;;;0.87;;
505;SDS011;551;48.524;9.056;2023-04-01T00:45:56;0.87;;;0.80;;
505;SDS011;551;48.524;9.056;2023-04-01T00:48:23;2.33;;;1.07;;
505;SDS011;551;48.524;9.056;2023-04-01T00:50:55;3.33;;;1.03;;
505;SDS011;551;48.524;9.056;2023-04-01T00:53:25;2.20;;;0.90;;
505;SDS011;551;48.524;9.056;2023-04-01T00:56:27;3.57;;;1.03;;
505;SDS011;551;48.524;9.056;2023-04-01T00:59:13;1.00;;;0.90;;
505;SDS011;551;48.524;9.056;2023-04-01T01:01:41;2.47;;;1.13;;
505;SDS011;551;48.524;9.056;2023-04-01T01:04:07;5.60;;;1.10;;
505;SDS011;551;48.524;9.056;2023-04-01T01:07:34;1.50;;;0.90;;
505;SDS011;551;48.524;9.056;2023-04-01T01:09:59;1.60;;;1.20;;
505;SDS011;551;48.524;9.056;2023-04-01T01:34:50;1.23;;;1.17;;
505;SDS011;551;48.524;9.056;2023-04-01T01:37:38;0.70;;;0.70;;
505;SDS011;551;48.524;9.056;2023-04-01T01:40:06;2.40;;;0.90;;
505;SDS011;551;48.524;9.056;2023-04-01T01:42:34;1.27;;;0.90;;
505;SDS011;551;48.524;9.056;2023-04-01T01:45:04;3.30;;;0.90;;
505;SDS011;551;48.524;9.056;2023-04-01T01:47:31;0.90;;;0.90;;
505;SDS011;551;48.524;9.056;2023-04-01T01:49:59;0.90;;;0.90;;
505;SDS011;551;48.524;9.056;2023-04-01T01:52:26;0.90;;;0.90;;
505;SDS011;551;48.524;9.056;2023-04-01T01:54:56;0.70;;;0.70;;
505;SDS011;551;48.524;9.056;2023-04-01T01:57:24;1.30;;;0.80;;
505;SDS011;551;48.524;9.056;2023-04-01T02:00:03;4.30;;;1.00;;
505;SDS011;551;48.524;9.056;2023-04-01T02:02:39;0.90;;;0.80;;
505;SDS011;551;48.524;9.056;2023-04-01T02:05:07;1.23;;;0.80;;
505;SDS011;551;48.524;9.056;2023-04-01T02:07:36;0.70;;;0.70;;
505;SDS011;551;48.524;9.056;2023-04-01T02:10:04;0.70;;;0.70;;
505;SDS011;551;48.524;9.056;2023-04-01T02:12:30;2.70;;;0.80;;
505;SDS011;551;48.524;9.056;2023-04-01T02:15:03;1.10;;;0.83;;
505;SDS011;551;48.524;9.056;2023-04-01T02:17:34;1.33;;;0.97;;
505;SDS011;551;48.524;9.056;2023-04-01T02:20:04;0.70;;;0.70;;
505;SDS011;551;48.524;9.056;2023-04-01T02:22:34;0.77;;;0.77;;
505;SDS011;551;48.524;9.056;2023-04-01T02:25:07;1.83;;;0.70;;
505;SDS011;551;48.524;9.056;2023-04-01T02:27:36;1.00;;;0.90;;
505;SDS011;551;48.524;9.056;2023-04-01T02:30:03;1.90;;;0.90;;
505;SDS011;551;48.524;9.056;2023-04-01T02:32:31;0.80;;;0.80;;
505;SDS011;551;48.524;9.056;2023-04-01T02:34:58;1.13;;;0.80;;
505;SDS011;551;48.524;9.056;2023-04-01T02:37:28;0.80;;;0.80;;
505;SDS011;551;48.524;9.056;2023-04-01T02:39:53;2.50;;;0.80;;
505;SDS011;551;48.524;9.056;2023-04-01T02:42:19;0.70;;;0.70;;
505;SDS011;551;48.524;9.056;2023-04-01T02:44:45;0.60;;;0.60;;
505;SDS011;551;48.524;9.056;2023-04-01T02:47:10;0.90;;;0.70;;
505;SDS011;551;48.524;9.056;2023-04-01T02:49:36;0.77;;;0.77;;
505;SDS011;551;48.524;9.056;2023-04-01T02:52:01;3.63;;;0.80;;
505;SDS011;551;48.524;9.056;2023-04-01T02:54:27;0.80;;;0.80;;
505;SDS011;551;48.524;9.056;2023-04-01T02:56:52;0.80;;;0.80;;
505;SDS011;551;48.524;9.056;2023-04-01T02:59:18;1.33;;;1.10;;
505;SDS011;551;48.524;9.056;2023-04-01T03:01:43;0.80;;;0.80;;
505;SDS011;551;48.524;9.056;2023-04-01T03:04:09;1.00;;;0.90;;
505;SDS011;551;48.524;9.056;2023-04-01T03:06:34;1.27;;;0.90;;
505;SDS011;551;48.524;9.056;2023-04-01T03:09:00;0.80;;;0.80;;
505;SDS011;551;48.524;9.056;2023-04-01T03:11:25;0.90;;;0.90;;
505;SDS011;551;48.524;9.056;2023-04-01T03:13:51;1.00;;;0.80;;
505;SDS011;551;48.524;9.056;2023-04-01T03:16:17;1.20;;;1.10;;
505;SDS011;551;48.524;9.056;2023-04-01T03:18:42;0.70;;;0.70;;
505;SDS011;551;48.524;9.056;2023-04-01T03:21:26;0.80;;;0.77;;
505;SDS011;551;48.524;9.056;2023-04-01T03:23:52;0.80;;;0.80;;
505;SDS011;551;48.524;9.056;2023-04-01T03:26:17;1.53;;;0.90;;
505;SDS011;551;48.524;9.056;2023-04-01T03:28:43;0.80;;;0.70;;
505;SDS011;551;48.524;9.056;2023-04-01T03:31:09;3.10;;;0.70;;
505;SDS011;551;48.524;9.056;2023-04-01T03:33:35;0.60;;;0.60;;
505;SDS011;551;48.524;9.056;2023-04-01T03:36:00;0.60;;;0.60;;
505;SDS011;551;48.524;9.056;2023-04-01T03:38:28;0.80;;;0.70;;
505;SDS011;551;48.524;9.056;2023-04-01T03:40:53;0.70;;;0.70;;
505;SDS011;551;48.524;9.056;2023-04-01T03:43:19;0.80;;;0.70;;
505;SDS011;551;48.524;9.056;2023-04-01T03:45:46;0.70;;;0.70;;
505;SDS011;551;48.524;9.056;2023-04-01T03:48:12;0.60;;;0.60;;
505;SDS011;551;48.524;9.056;2023-04-01T03:50:39;1.83;;;0.90;;
505;SDS011;551;48.524;9.056;2023-04-01T03:53:05;1.10;;;0.77;;
505;SDS011;551;48.524;9.056;2023-04-01T03:55:30;0.70;;;0.70;;
505;SDS011;551;48.524;9.056;2023-04-01T03:57:56;0.70;;;0.70;;
505;SDS011;551;48.524;9.056;2023-04-01T04:00:21;0.77;;;0.77;;
505;SDS011;551;48.524;9.056;2023-04-01T04:02:47;3.07;;;0.70;;
505;SDS011;551;48.524;9.056;2023-04-01T04:05:12;0.90;;;0.80;;
505;SDS011;551;48.524;9.056;2023-04-01T04:07:41;0.70;;;0.70;;
505;SDS011;551;48.524;9.056;2023-04-01T04:10:07;0.70;;;0.70;;
505;SDS011;551;48.524;9.056;2023-04-01T04:12:32;0.70;;;0.70;;
505;SDS011;551;48.524;9.056;2023-04-01T04:14:58;0.70;;;0.70;;
505;SDS011;551;48.524;9.056;2023-04-01T04:17:23;0.90;;;0.80;;
505;SDS011;551;48.524;9.056;2023-04-01T04:19:49;0.67;;;0.67;;
505;SDS011;551;48.524;9.056;2023-04-01T04:22:16;0.70;;;0.70;;
505;SDS011;551;48.524;9.056;2023-04-01T04:24:42;0.80;;;0.70;;
505;SDS011;551;48.524;9.056;2023-04-01T04:27:07;1.07;;;0.70;;
505;SDS011;551;48.524;9.056;2023-04-01T04:29:33;0.80;;;0.80;;
505;SDS011;551;48.524;9.056;2023-04-01T04:31:58;1.17;;;0.80;;
505;SDS011;551;48.524;9.056;2023-04-01T04:34:24;1.57;;;1.20;;
505;SDS011;551;48.524;9.056;2023-04-01T04:36:49;1.03;;;1.00;;
505;SDS011;551;48.524;9.056;2023-04-01T04:39:15;1.63;;;0.90;;
505;SDS011;551;48.524;9.056;2023-04-01T04:41:41;1.83;;;0.90;;
505;SDS011;551;48.524;9.056;2023-04-01T04:44:06;2.33;;;1.30;;
505;SDS011;551;48.524;9.056;2023-04-01T04:46:32;1.00;;;0.93;;
505;SDS011;551;48.524;9.056;2023-04-01T04:48:58;2.70;;;0.90;;
505;SDS011;551;48.524;9.056;2023-04-01T04:51:23;1.57;;;1.07;;
505;SDS011;551;48.524;9.056;2023-04-01T04:53:49;1.10;;;0.90;;
505;SDS011;551;48.524;9.056;2023-04-01T04:56:18;1.33;;;1.23;;
505;SDS011;551;48.524;9.056;2023-04-01T04:58:45;1.97;;;1.27;;
505;SDS011;551;48.524;9.056;2023-04-01T05:01:12;2.60;;;1.90;;
505;SDS011;551;48.524;9.056;2023-04-01T05:03:39;2.00;;;1.17;;
505;SDS011;551;48.524;9.056;2023-04-01T05:06:05;4.20;;;1.30;;
505;SDS011;551;48.524;9.056;2023-04-01T05:08:31;0.87;;;0.87;;
505;SDS011;551;48.524;9.056;2023-04-01T05:10:57;1.33;;;1.10;;
505;SDS011;551;48.524;9.056;2023-04-01T05:13:23;2.00;;;1.13;;
505;SDS011;551;48.524;9.056;2023-04-01T05:15:49;1.83;;;1.10;;
505;SDS011;551;48.524;9.056;2023-04-01T05:18:15;2.50;;;1.20;;
505;SDS011;551;48.524;9.056;2023-04-01T05:20:48;1.53;;;1.07;;
505;SDS011;551;48.524;9.056;2023-04-01T05:23:15;1.07;;;0.97;;
505;SDS011;551;48.524;9.056;2023-04-01T05:25:40;2.60;;;1.00;;
505;SDS011;551;48.524;9.056;2023-04-01T05:28:06;6.70;;;1.13;;
505;SDS011;551;48.524;9.056;2023-04-01T05:30:31;3.17;;;1.00;;
505;SDS011;551;48.524;9.056;2023-04-01T05:32:57;0.87;;;0.87;;
505;SDS011;551;48.524;9.056;2023-04-01T05:35:23;1.77;;;1.40;;
505;SDS011;551;48.524;9.056;2023-04-01T05:37:48;0.80;;;0.80;;
505;SDS011;551;48.524;9.056;2023-04-01T05:40:14;0.70;;;0.70;;
505;SDS011;551;48.524;9.056;2023-04-01T05:42:40;1.80;;;0.87;;
505;SDS011;551;48.524;9.056;2023-04-01T05:45:05;0.80;;;0.80;;
505;SDS011;551;48.524;9.056;2023-04-01T05:47:31;1.03;;;0.80;;
505;SDS011;551;48.524;9.056;2023-04-01T05:49:57;3.53;;;1.00;;
505;SDS011;551;48.524;9.056;2023-04-01T05:52:22;0.87;;;0.87;;
505;SDS011;551;48.524;9.056;2023-04-01T05:54:48;0.90;;;0.90;;
505;SDS011;551;48.524;9.056;2023-04-01T05:57:14;1.00;;;1.00;;
505;SDS011;551;48.524;9.056;2023-04-01T05:59:39;1.70;;;0.83;;
505;SDS011;551;48.524;9.056;2023-04-01T06:02:05;1.80;;;1.20;;
505;SDS011;551;48.524;9.056;2023-04-01T06:04:32;3.80;;;1.47;;
505;SDS011;551;48.524;9.056;2023-04-01T06:07:05;4.80;;;0.83;;
505;SDS011;551;48.524;9.056;2023-04-01T06:09:38;1.63;;;0.90;;
505;SDS011;551;48.524;9.056;2023-04-01T06:14:51;1.00;;;0.90;;
505;SDS011;551;48.524;9.056;2023-04-01T06:20:25;2.20;;;1.00;;
505;SDS011;551;48.524;9.056;2023-04-01T06:25:34;1.00;;;0.90;;
505;SDS011;551;48.524;9.056;2023-04-01T06:36:47;0.90;;;0.90;;
505;SDS011;551;48.524;9.056;2023-04-01T06:42:31;1.17;;;1.07;;
505;SDS011;551;48.524;9.056;2023-04-01T06:56:12;1.10;;;1.00;;
505;SDS011;551;48.524;9.056;2023-04-01T06:58:42;1.27;;;0.80;;
505;SDS011;551;48.524;9.056;2023-04-01T07:01:14;1.73;;;1.00;;
505;SDS011;551;48.524;9.056;2023-04-01T07:03:53;0.87;;;0.87;;
505;SDS011;551;48.524;9.056;2023-04-01T07:06:25;1.13;;;0.80;;
505;SDS011;551;48.524;9.056;2023-04-01T07:09:06;1.07;;;0.90;;
505;SDS011;551;48.524;9.056;2023-04-01T07:11:37;2.60;;;1.00;;
505;SDS011;551;48.524;9.056;2023-04-01T07:16:48;2.03;;;1.20;;
505;SDS011;551;48.524;9.056;2023-04-01T07:19:31;1.00;;;0.90;;
505;SDS011;551;48.524;9.056;2023-04-01T07:24:57;0.90;;;0.80;;
505;SDS011;551;48.524;9.056;2023-04-01T07:27:26;3.10;;;1.00;;
505;SDS011;551;48.524;9.056;2023-04-01T07:29:51;5.03;;;1.43;;
505;SDS011;551;48.524;9.056;2023-04-01T07:32:37;1.63;;;1.10;;
505;SDS011;551;48.524;9.056;2023-04-01T07:35:25;2.80;;;1.30;;
505;SDS011;551;48.524;9.056;2023-04-01T07:41:03;1.10;;;1.00;;
505;SDS011;551;48.524;9.056;2023-04-01T07:44:10;2.00;;;1.30;;
505;SDS011;551;48.524;9.056;2023-04-01T07:46:47;2.13;;;1.20;;
505;SDS011;551;48.524;9.056;2023-04-01T07:52:00;3.13;;;1.00;;
505;SDS011;551;48.524;9.056;2023-04-01T07:54:42;2.60;;;1.00;;
505;SDS011;551;48.524;9.056;2023-04-01T07:57:33;1.13;;;1.03;;
505;SDS011;551;48.524;9.056;2023-04-01T08:00:14;1.77;;;1.00;;
505;SDS011;551;48.524;9.056;2023-04-01T08:03:05;1.43;;;1.13;;
505;SDS011;551;48.524;9.056;2023-04-01T08:05:59;2.00;;;1.00;;
505;SDS011;551;48.524;9.056;2023-04-01T08:11:12;1.70;;;1.13;;
505;SDS011;551;48.524;9.056;2023-04-01T08:13:57;0.80;;;0.80;;
505;SDS011;551;48.524;9.056;2023-04-01T08:16:39;1.23;;;1.00;;
505;SDS011;551;48.524;9.056;2023-04-01T08:19:31;1.13;;;1.00;;
505;SDS011;551;48.524;9.056;2023-04-01T08:22:20;1.13;;;1.00;;
505;SDS011;551;48.524;9.056;2023-04-01T08:24:52;2.87;;;1.43;;
505;SDS011;551;48.524;9.056;2023-04-01T08:32:46;1.77;;;1.03;;
505;SDS011;551;48.524;9.056;2023-04-01T08:37:45;4.20;;;0.90;;
505;SDS011;551;48.524;9.056;2023-04-01T08:54:43;0.93;;;0.93;;
505;SDS011;551;48.524;9.056;2023-04-01T09:00:32;7.27;;;1.13;;
505;SDS011;551;48.524;9.056;2023-04-01T09:08:52;2.67;;;1.00;;
505;SDS011;551;48.524;9.056;2023-04-01T09:14:26;1.03;;;0.93;;
505;SDS011;551;48.524;9.056;2023-04-01T09:20:28;1.20;;;1.10;;
505;SDS011;551;48.524;9.056;2023-04-01T09:23:28;0.90;;;0.90;;
505;SDS011;551;48.524;9.056;2023-04-01T09:40:17;0.90;;;0.90;;
505;SDS011;551;48.524;9.056;2023-04-01T09:42:54;2.70;;;1.10;;
505;SDS011;551;48.524;9.056;2023-04-01T09:45:48;1.20;;;1.10;;
505;SDS011;551;48.524;9.056;2023-04-01T09:48:50;1.40;;;1.10;;
505;SDS011;551;48.524;9.056;2023-04-01T09:51:35;1.53;;;1.10;;
505;SDS011;551;48.524;9.056;2023-04-01T10:08:43;7.23;;;2.63;;
505;SDS011;551;48.524;9.056;2023-04-01T10:13:57;2.00;;;1.17;;
505;SDS011;551;48.524;9.056;2023-04-01T10:29:59;1.13;;;1.03;;
505;SDS011;551;48.524;9.056;2023-04-01T10:33:06;1.07;;;0.90;;
505;SDS011;551;48.524;9.056;2023-04-01T10:53:58;1.27;;;1.17;;
505;SDS011;551;48.524;9.056;2023-04-01T10:56:55;1.20;;;1.10;;
505;SDS011;551;48.524;9.056;2023-04-01T10:59:45;1.20;;;1.20;;
505;SDS011;551;48.524;9.056;2023-04-01T11:05:50;1.60;;;1.20;;
505;SDS011;551;48.524;9.056;2023-04-01T11:17:05;1.57;;;1.00;;
505;SDS011;551;48.524;9.056;2023-04-01T11:25:39;0.90;;;0.90;;
505;SDS011;551;48.524;9.056;2023-04-01T11:28:35;1.20;;;1.10;;
505;SDS011;551;48.524;9.056;2023-04-01T11:31:20;0.90;;;0.90;;
505;SDS011;551;48.524;9.056;2023-04-01T11:33:57;1.00;;;0.90;;
505;SDS011;551;48.524;9.056;2023-04-01T11:36:52;1.23;;;0.90;;
505;SDS011;551;48.524;9.056;2023-04-01T11:39:46;1.10;;;1.00;;
505;SDS011;551;48.524;9.056;2023-04-01T11:42:37;1.53;;;0.87;;
505;SDS011;551;48.524;9.056;2023-04-01T11:47:58;1.13;;;1.10;;
505;SDS011;551;48.524;9.056;2023-04-01T11:51:00;0.80;;;0.80;;
505;SDS011;551;48.524;9.056;2023-04-01T11:53:38;0.90;;;0.90;;
505;SDS011;551;48.524;9.056;2023-04-01T11:56:18;1.10;;;1.00;;
505;SDS011;551;48.524;9.056;2023-04-01T12:02:08;0.80;;;0.80;;
505;SDS011;551;48.524;9.056;2023-04-01T12:05:04;0.97;;;0.97;;
505;SDS011;551;48.524;9.056;2023-04-01T12:07:45;0.80;;;0.80;;
505;SDS011;551;48.524;9.056;2023-04-01T12:10:21;1.00;;;1.00;;
505;SDS011;551;48.524;9.056;2023-04-01T12:19:15;1.20;;;1.10;;
505;SDS011;551;48.524;9.056;2023-04-01T12:24:52;1.00;;;1.00;;
505;SDS011;551;48.524;9.056;2023-04-01T12:27:38;0.80;;;0.80;;
505;SDS011;551;48.524;9.056;2023-04-01T12:30:21;1.10;;;1.00;;
505;SDS011;551;48.524;9.056;2023-04-01T12:32:53;0.90;;;0.90;;
505;SDS011;551;48.524;9.056;2023-04-01T12:52:19;1.07;;;0.80;;
505;SDS011;551;48.524;9.056;2023-04-01T12:55:25;0.90;;;0.90;;
505;SDS011;551;48.524;9.056;2023-04-01T13:06:48;0.90;;;0.90;;
505;SDS011;551;48.524;9.056;2023-04-01T13:09:40;1.03;;;0.90;;
505;SDS011;551;48.524;9.056;2023-04-01T13:22:56;2.40;;;1.53;;
505;SDS011;551;48.524;9.056;2023-04-01T13:25:47;1.10;;;1.00;;
505;SDS011;551;48.524;9.056;2023-04-01T13:28:21;0.80;;;0.80;;
505;SDS011;551;48.524;9.056;2023-04-01T13:44:36;0.90;;;0.90;;
505;SDS011;551;48.524;9.056;2023-04-01T13:47:11;0.80;;;0.80;;
505;SDS011;551;48.524;9.056;2023-04-01T13:50:01;1.43;;;1.00;;
505;SDS011;551;48.524;9.056;2023-04-01T13:55:30;1.37;;;0.90;;
505;SDS011;551;48.524;9.056;2023-04-01T13:58:31;0.97;;;0.90;;
505;SDS011;551;48.524;9.056;2023-04-01T14:08:47;1.63;;;0.90;;
505;SDS011;551;48.524;9.056;2023-04-01T14:11:38;4.03;;;1.00;;
505;SDS011;551;48.524;9.056;2023-04-01T14:18:05;1.00;;;1.00;;
505;SDS011;551;48.524;9.056;2023-04-01T14:20:20;1.00;;;0.90;;
505;SDS011;551;48.524;9.056;2023-04-01T14:23:07;0.90;;;0.80;;
505;SDS011;551;48.524;9.056;2023-04-01T14:26:44;1.00;;;0.90;;
505;SDS011;551;48.524;9.056;2023-04-01T14:32:06;0.80;;;0.80;;
505;SDS011;551;48.524;9.056;2023-04-01T14:40:27;0.87;;;0.87;;
505;SDS011;551;48.524;9.056;2023-04-01T14:48:39;1.87;;;0.90;;
505;SDS011;551;48.524;9.056;2023-04-01T14:54:05;1.20;;;1.10;;
505;SDS011;551;48.524;9.056;2023-04-01T14:56:50;1.27;;;1.00;;
505;SDS011;551;48.524;9.056;2023-04-01T14:59:34;1.80;;;0.90;;
505;SDS011;551;48.524;9.056;2023-04-01T15:02:18;1.03;;;0.93;;
505;SDS011;551;48.524;9.056;2023-04-01T15:15:39;5.60;;;1.10;;
505;SDS011;551;48.524;9.056;2023-04-01T15:21:25;1.17;;;1.07;;
505;SDS011;551;48.524;9.056;2023-04-01T15:24:16;1.70;;;1.00;;
505;SDS011;551;48.524;9.056;2023-04-01T15:29:43;1.20;;;1.10;;
505;SDS011;551;48.524;9.056;2023-04-01T15:38:25;0.90;;;0.90;;
505;SDS011;551;48.524;9.056;2023-04-01T15:41:14;1.77;;;1.40;;
505;SDS011;551;48.524;9.056;2023-04-01T15:43:58;1.17;;;1.07;;
505;SDS011;551;48.524;9.056;2023-04-01T15:46:26;1.10;;;1.00;;
505;SDS011;551;48.524;9.056;2023-04-01T15:51:31;1.30;;;1.20;;
505;SDS011;551;48.524;9.056;2023-04-01T15:56:53;1.83;;;1.47;;
505;SDS011;551;48.524;9.056;2023-04-01T16:02:30;4.07;;;1.40;;
505;SDS011;551;48.524;9.056;2023-04-01T16:13:03;1.17;;;1.03;;
505;SDS011;551;48.524;9.056;2023-04-01T16:15:50;1.70;;;1.10;;
505;SDS011;551;48.524;9.056;2023-04-01T16:21:21;1.53;;;1.37;;
505;SDS011;551;48.524;9.056;2023-04-01T16:23:56;1.30;;;1.20;;
505;SDS011;551;48.524;9.056;2023-04-01T16:29:19;2.50;;;1.60;;
505;SDS011;551;48.524;9.056;2023-04-01T16:37:29;2.60;;;1.20;;
505;SDS011;551;48.524;9.056;2023-04-01T16:42:50;4.17;;;1.30;;
505;SDS011;551;48.524;9.056;2023-04-01T16:48:21;2.40;;;1.30;;
505;SDS011;551;48.524;9.056;2023-04-01T16:50:55;2.10;;;1.00;;
505;SDS011;551;48.524;9.056;2023-04-01T16:53:29;1.40;;;1.30;;
505;SDS011;551;48.524;9.056;2023-04-01T16:56:04;1.10;;;0.93;;
505;SDS011;551;48.524;9.056;2023-04-01T17:01:14;1.10;;;1.00;;
505;SDS011;551;48.524;9.056;2023-04-01T17:03:46;1.43;;;1.10;;
505;SDS011;551;48.524;9.056;2023-04-01T17:06:19;1.60;;;1.17;;
505;SDS011;551;48.524;9.056;2023-04-01T17:11:44;3.70;;;1.70;;
505;SDS011;551;48.524;9.056;2023-04-01T17:17:37;3.87;;;1.47;;
505;SDS011;551;48.524;9.056;2023-04-01T17:20:26;3.03;;;1.87;;
505;SDS011;551;48.524;9.056;2023-04-01T17:23:11;5.37;;;1.37;;
505;SDS011;551;48.524;9.056;2023-04-01T17:25:48;1.70;;;1.17;;
505;SDS011;551;48.524;9.056;2023-04-01T17:28:31;4.57;;;1.50;;
505;SDS011;551;48.524;9.056;2023-04-01T17:42:15;1.63;;;1.50;;
505;SDS011;551;48.524;9.056;2023-04-01T17:44:49;2.83;;;1.73;;
505;SDS011;551;48.524;9.056;2023-04-01T17:47:28;4.73;;;1.73;;
505;SDS011;551;48.524;9.056;2023-04-01T17:50:36;1.40;;;1.30;;
505;SDS011;551;48.524;9.056;2023-04-01T17:53:22;1.43;;;1.20;;
505;SDS011;551;48.524;9.056;2023-04-01T17:56:09;1.70;;;1.60;;
505;SDS011;551;48.524;9.056;2023-04-01T17:59:13;1.70;;;1.20;;
505;SDS011;551;48.524;9.056;2023-04-01T18:04:36;2.07;;;1.20;;
505;SDS011;551;48.524;9.056;2023-04-01T18:15:12;1.70;;;1.60;;
505;SDS011;551;48.524;9.056;2023-04-01T18:20:19;2.53;;;2.00;;
505;SDS011;551;48.524;9.056;2023-04-01T18:22:58;2.23;;;1.97;;
505;SDS011;551;48.524;9.056;2023-04-01T18:25:37;3.30;;;1.70;;
505;SDS011;551;48.524;9.056;2023-04-01T18:28:21;2.70;;;2.43;;
505;SDS011;551;48.524;9.056;2023-04-01T18:39:32;2.10;;;2.00;;
505;SDS011;551;48.524;9.056;2023-04-01T18:42:16;2.33;;;1.40;;
505;SDS011;551;48.524;9.056;2023-04-01T18:44:52;2.00;;;1.50;;
505;SDS011;551;48.524;9.056;2023-04-01T18:47:44;2.50;;;1.10;;
505;SDS011;551;48.524;9.056;2023-04-01T18:50:43;1.13;;;1.03;;
505;SDS011;551;48.524;9.056;2023-04-01T18:53:23;1.47;;;1.23;;
505;SDS011;551;48.524;9.056;2023-04-01T18:56:14;1.70;;;1.50;;
505;SDS011;551;48.524;9.056;2023-04-01T18:59:20;1.93;;;1.83;;
505;SDS011;551;48.524;9.056;2023-04-01T19:02:08;1.30;;;1.20;;
505;SDS011;551;48.524;9.056;2023-04-01T19:04:52;2.10;;;1.40;;
505;SDS011;551;48.524;9.056;2023-04-01T19:10:12;1.37;;;1.20;;
505;SDS011;551;48.524;9.056;2023-04-01T19:15:24;2.23;;;1.50;;
505;SDS011;551;48.524;9.056;2023-04-01T19:18:11;1.27;;;1.17;;
505;SDS011;551;48.524;9.056;2023-04-01T19:32:10;3.03;;;1.87;;
505;SDS011;551;48.524;9.056;2023-04-01T19:34:49;2.40;;;1.80;;
505;SDS011;551;48.524;9.056;2023-04-01T19:43:14;2.60;;;1.70;;
505;SDS011;551;48.524;9.056;2023-04-01T19:46:23;8.30;;;1.97;;
505;SDS011;551;48.524;9.056;2023-04-01T19:54:35;2.40;;;2.20;;
505;SDS011;551;48.524;9.056;2023-04-01T20:00:30;3.00;;;2.70;;
505;SDS011;551;48.524;9.056;2023-04-01T20:03:03;3.20;;;2.23;;
505;SDS011;551;48.524;9.056;2023-04-01T20:11:35;3.13;;;2.73;;
505;SDS011;551;48.524;9.056;2023-04-01T20:14:21;3.70;;;2.50;;
505;SDS011;551;48.524;9.056;2023-04-01T20:19:42;3.80;;;2.63;;
505;SDS011;551;48.524;9.056;2023-04-01T20:22:23;3.23;;;2.33;;
505;SDS011;551;48.524;9.056;2023-04-01T20:24:57;2.20;;;1.80;;
505;SDS011;551;48.524;9.056;2023-04-01T20:33:18;2.20;;;2.00;;
505;SDS011;551;48.524;9.056;2023-04-01T20:41:53;2.83;;;2.60;;
505;SDS011;551;48.524;9.056;2023-04-01T20:44:31;2.90;;;2.17;;
505;SDS011;551;48.524;9.056;2023-04-01T20:50:06;2.43;;;2.23;;
505;SDS011;551;48.524;9.056;2023-04-01T20:53:15;2.20;;;2.00;;
505;SDS011;551;48.524;9.056;2023-04-01T20:58:38;2.60;;;2.40;;
505;SDS011;551;48.524;9.056;2023-04-01T21:04:30;3.00;;;2.43;;
505;SDS011;551;48.524;9.056;2023-04-01T21:07:04;8.50;;;3.40;;
505;SDS011;551;48.524;9.056;2023-04-01T21:12:50;5.20;;;4.33;;
505;SDS011;551;48.524;9.056;2023-04-01T21:15:36;3.50;;;3.20;;
505;SDS011;551;48.524;9.056;2023-04-01T21:18:22;5.07;;;2.80;;
505;SDS011;551;48.524;9.056;2023-04-01T21:26:30;3.00;;;2.23;;
505;SDS011;551;48.524;9.056;2023-04-01T21:29:27;3.37;;;2.50;;
505;SDS011;551;48.524;9.056;2023-04-01T21:40:56;2.77;;;2.57;;
505;SDS011;551;48.524;9.056;2023-04-01T21:46:56;1.90;;;1.80;;
505;SDS011;551;48.524;9.056;2023-04-01T21:57:57;3.47;;;2.60;;
505;SDS011;551;48.524;9.056;2023-04-01T22:00:38;8.77;;;3.40;;
505;SDS011;551;48.524;9.056;2023-04-01T22:03:36;3.83;;;3.53;;
505;SDS011;551;48.524;9.056;2023-04-01T22:06:21;3.20;;;2.90;;
505;SDS011;551;48.524;9.056;2023-04-01T22:09:05;3.60;;;3.30;;
505;SDS011;551;48.524;9.056;2023-04-01T22:14:46;2.57;;;2.20;;
505;SDS011;551;48.524;9.056;2023-04-01T22:17:57;2.70;;;2.50;;
505;SDS011;551;48.524;9.056;2023-04-01T22:23:17;2.90;;;2.20;;
505;SDS011;551;48.524;9.056;2023-04-01T22:25:59;3.03;;;2.27;;
505;SDS011;551;48.524;9.056;2023-04-01T22:31:03;4.47;;;2.23;;
505;SDS011;551;48.524;9.056;2023-04-01T22:33:34;3.80;;;1.90;;
505;SDS011;551;48.524;9.056;2023-04-01T22:41:46;1.30;;;1.20;;
505;SDS011;551;48.524;9.056;2023-04-01T22:44:31;1.87;;;1.77;;
505;SDS011;551;48.524;9.056;2023-04-01T22:47:12;1.57;;;1.17;;
505;SDS011;551;48.524;9.056;2023-04-01T22:50:03;1.20;;;1.10;;
505;SDS011;551;48.524;9.056;2023-04-01T22:52:50;3.77;;;1.40;;
505;SDS011;551;48.524;9.056;2023-04-01T22:55:40;1.03;;;1.00;;
505;SDS011;551;48.524;9.056;2023-04-01T22:58:08;1.20;;;1.10;;
505;SDS011;551;48.524;9.056;2023-04-01T23:00:48;1.97;;;1.37;;
505;SDS011;551;48.524;9.056;2023-04-01T23:03:18;3.03;;;1.00;;
505;SDS011;551;48.524;9.056;2023-04-01T23:05:53;1.33;;;1.10;;
505;SDS011;551;48.524;9.056;2023-04-01T23:11:24;3.70;;;1.10;;
505;SDS011;551;48.524;9.056;2023-04-01T23:14:03;1.57;;;1.23;;
505;SDS011;551;48.524;9.056;2023-04-01T23:16:39;0.93;;;0.93;;
505;SDS011;551;48.524;9.056;2023-04-01T23:19:13;1.07;;;1.07;;
505;SDS011;551;48.524;9.056;2023-04-01T23:22:09;1.00;;;1.00;;
505;SDS011;551;48.524;9.056;2023-04-01T23:25:27;1.07;;;0.90;;
505;SDS011;551;48.524;9.056;2023-04-01T23:27:37;1.10;;;1.00;;
505;SDS011;551;48.524;9.056;2023-04-01T23:35:47;1.07;;;1.00;;
505;SDS011;551;48.524;9.056;2023-04-01T23:38:31;0.90;;;0.90;;
505;SDS011;551;48.524;9.056;2023-04-01T23:40:59;2.17;;;2.07;;
505;SDS011;551;48.524;9.056;2023-04-01T23:43:33;1.00;;;0.90;;
505;SDS011;551;48.524;9.056;2023-04-01T23:46:03;1.60;;;0.90;;
505;SDS011;551;48.524;9.056;2023-04-01T23:48:32;1.00;;;0.90;;
505;SDS011;551;48.524;9.056;2023-04-01T23:51:01;0.87;;;0.87;;
505;SDS011;551;48.524;9.056;2023-04-01T23:53:29;1.67;;;0.90;;
505;SDS011;551;48.524;9.056;2023-04-01T23:55:58;0.90;;;0.90;;
505;SDS011;551;48.524;9.056;2023-04-01T23:58:27;1.13;;;1.00;;
